sensor_id;sensor_type;location;lat;lon;timestamp;pressure;altitude;pressure_sealevel;temperature
68127;BMP180;54931;52.098;21.006;2023-06-22T00:00:28;100354.00;;;18.40
68127;BMP180;54931;52.098;21.006;2023-06-22T00:03:22;100351.80;;;18.40
68127;BMP180;54931;52.098;21.006;2023-06-22T00:05:51;100349.20;;;18.34
68127;BMP180;54931;52.098;21.006;2023-06-22T00:08:19;100349.20;;;18.30
68127;BMP180;54931;52.098;21.006;2023-06-22T00:10:47;100351.60;;;18.30
68127;BMP180;54931;52.098;21.006;2023-06-22T00:13:16;100354.20;;;18.20
68127;BMP180;54931;52.098;21.006;2023-06-22T00:15:45;100358.20;;;18.20
68127;BMP180;54931;52.098;21.006;2023-06-22T00:18:13;100361.60;;;18.20
68127;BMP180;54931;52.098;21.006;2023-06-22T00:20:42;100358.80;;;18.20
68127;BMP180;54931;52.098;21.006;2023-06-22T00:23:09;100358.00;;;18.10
68127;BMP180;54931;52.098;21.006;2023-06-22T00:25:38;100354.20;;;18.10
68127;BMP180;54931;52.098;21.006;2023-06-22T00:28:09;100355.80;;;18.10
68127;BMP180;54931;52.098;21.006;2023-06-22T00:30:37;100354.40;;;18.04
68127;BMP180;54931;52.098;21.006;2023-06-22T00:33:06;100354.00;;;18.00
68127;BMP180;54931;52.098;21.006;2023-06-22T00:35:35;100354.60;;;18.00
68127;BMP180;54931;52.098;21.006;2023-06-22T00:38:03;100352.00;;;18.00
68127;BMP180;54931;52.098;21.006;2023-06-22T00:40:33;100347.40;;;17.92
68127;BMP180;54931;52.098;21.006;2023-06-22T00:43:01;100348.20;;;17.90
68127;BMP180;54931;52.098;21.006;2023-06-22T00:45:29;100346.00;;;17.90
68127;BMP180;54931;52.098;21.006;2023-06-22T00:47:58;100346.20;;;17.90
68127;BMP180;54931;52.098;21.006;2023-06-22T00:50:30;100349.20;;;17.80
68127;BMP180;54931;52.098;21.006;2023-06-22T00:53:06;100346.60;;;17.80
68127;BMP180;54931;52.098;21.006;2023-06-22T00:55:42;100345.20;;;17.80
68127;BMP180;54931;52.098;21.006;2023-06-22T00:58:20;100345.60;;;17.80
68127;BMP180;54931;52.098;21.006;2023-06-22T01:00:52;100343.80;;;17.72
68127;BMP180;54931;52.098;21.006;2023-06-22T01:03:20;100340.00;;;17.70
68127;BMP180;54931;52.098;21.006;2023-06-22T01:05:50;100334.00;;;17.70
68127;BMP180;54931;52.098;21.006;2023-06-22T01:08:46;100326.40;;;17.70
68127;BMP180;54931;52.098;21.006;2023-06-22T01:11:26;100318.80;;;17.70
68127;BMP180;54931;52.098;21.006;2023-06-22T01:14:09;100318.80;;;17.70
68127;BMP180;54931;52.098;21.006;2023-06-22T01:16:44;100317.00;;;17.70
68127;BMP180;54931;52.098;21.006;2023-06-22T01:19:45;100314.80;;;17.70
68127;BMP180;54931;52.098;21.006;2023-06-22T01:22:17;100318.00;;;17.70
68127;BMP180;54931;52.098;21.006;2023-06-22T01:25:10;100314.80;;;17.60
68127;BMP180;54931;52.098;21.006;2023-06-22T01:27:53;100313.80;;;17.60
68127;BMP180;54931;52.098;21.006;2023-06-22T01:30:25;100309.60;;;17.60
68127;BMP180;54931;52.098;21.006;2023-06-22T01:32:56;100301.20;;;17.60
68127;BMP180;54931;52.098;21.006;2023-06-22T01:35:25;100301.60;;;17.60
68127;BMP180;54931;52.098;21.006;2023-06-22T01:37:55;100304.00;;;17.60
68127;BMP180;54931;52.098;21.006;2023-06-22T01:40:24;100306.20;;;17.60
68127;BMP180;54931;52.098;21.006;2023-06-22T01:42:54;100307.80;;;17.56
68127;BMP180;54931;52.098;21.006;2023-06-22T01:45:22;100297.80;;;17.54
68127;BMP180;54931;52.098;21.006;2023-06-22T01:47:51;100305.60;;;17.50
68127;BMP180;54931;52.098;21.006;2023-06-22T01:50:19;100312.60;;;17.50
68127;BMP180;54931;52.098;21.006;2023-06-22T01:52:47;100311.60;;;17.50
68127;BMP180;54931;52.098;21.006;2023-06-22T01:55:15;100317.00;;;17.50
68127;BMP180;54931;52.098;21.006;2023-06-22T01:57:43;100321.80;;;17.50
68127;BMP180;54931;52.098;21.006;2023-06-22T02:00:21;100328.00;;;17.50
68127;BMP180;54931;52.098;21.006;2023-06-22T02:03:10;100332.00;;;17.50
68127;BMP180;54931;52.098;21.006;2023-06-22T02:05:43;100339.40;;;17.50
68127;BMP180;54931;52.098;21.006;2023-06-22T02:08:24;100346.60;;;17.50
68127;BMP180;54931;52.098;21.006;2023-06-22T02:10:55;100350.00;;;17.50
68127;BMP180;54931;52.098;21.006;2023-06-22T02:13:25;100357.40;;;17.50
68127;BMP180;54931;52.098;21.006;2023-06-22T02:15:54;100360.20;;;17.50
68127;BMP180;54931;52.098;21.006;2023-06-22T02:18:22;100358.80;;;17.50
68127;BMP180;54931;52.098;21.006;2023-06-22T02:20:50;100362.00;;;17.50
68127;BMP180;54931;52.098;21.006;2023-06-22T02:23:18;100373.00;;;17.50
68127;BMP180;54931;52.098;21.006;2023-06-22T02:25:46;100379.60;;;17.50
68127;BMP180;54931;52.098;21.006;2023-06-22T02:28:13;100379.20;;;17.60
68127;BMP180;54931;52.098;21.006;2023-06-22T02:30:41;100383.60;;;17.60
68127;BMP180;54931;52.098;21.006;2023-06-22T02:33:09;100384.00;;;17.70
68127;BMP180;54931;52.098;21.006;2023-06-22T02:35:37;100377.60;;;17.70
68127;BMP180;54931;52.098;21.006;2023-06-22T02:38:05;100382.00;;;17.80
68127;BMP180;54931;52.098;21.006;2023-06-22T02:40:32;100384.80;;;17.80
68127;BMP180;54931;52.098;21.006;2023-06-22T02:43:00;100387.80;;;17.90
68127;BMP180;54931;52.098;21.006;2023-06-22T02:45:30;100391.80;;;17.90
68127;BMP180;54931;52.098;21.006;2023-06-22T02:47:58;100392.80;;;18.00
68127;BMP180;54931;52.098;21.006;2023-06-22T02:50:26;100390.80;;;18.10
68127;BMP180;54931;52.098;21.006;2023-06-22T02:52:54;100397.80;;;18.10
68127;BMP180;54931;52.098;21.006;2023-06-22T02:55:22;100405.60;;;18.20
68127;BMP180;54931;52.098;21.006;2023-06-22T02:57:50;100400.80;;;18.30
68127;BMP180;54931;52.098;21.006;2023-06-22T03:00:20;100409.20;;;18.30
68127;BMP180;54931;52.098;21.006;2023-06-22T03:02:49;100412.00;;;18.40
68127;BMP180;54931;52.098;21.006;2023-06-22T03:05:17;100412.20;;;18.40
68127;BMP180;54931;52.098;21.006;2023-06-22T03:07:45;100414.20;;;18.40
68127;BMP180;54931;52.098;21.006;2023-06-22T03:10:14;100419.60;;;18.50
68127;BMP180;54931;52.098;21.006;2023-06-22T03:12:43;100415.20;;;18.50
68127;BMP180;54931;52.098;21.006;2023-06-22T03:15:12;100420.40;;;18.50
68127;BMP180;54931;52.098;21.006;2023-06-22T03:17:40;100426.80;;;18.50
68127;BMP180;54931;52.098;21.006;2023-06-22T03:20:10;100425.00;;;18.54
68127;BMP180;54931;52.098;21.006;2023-06-22T03:22:41;100424.80;;;18.60
68127;BMP180;54931;52.098;21.006;2023-06-22T03:25:09;100430.80;;;18.60
68127;BMP180;54931;52.098;21.006;2023-06-22T03:27:41;100430.00;;;18.60
68127;BMP180;54931;52.098;21.006;2023-06-22T03:30:11;100434.60;;;18.66
68127;BMP180;54931;52.098;21.006;2023-06-22T03:32:39;100433.80;;;18.70
68127;BMP180;54931;52.098;21.006;2023-06-22T03:35:08;100438.20;;;18.70
68127;BMP180;54931;52.098;21.006;2023-06-22T03:37:37;100434.80;;;18.70
68127;BMP180;54931;52.098;21.006;2023-06-22T03:40:06;100436.80;;;18.80
68127;BMP180;54931;52.098;21.006;2023-06-22T03:42:36;100438.80;;;18.80
68127;BMP180;54931;52.098;21.006;2023-06-22T03:45:05;100442.60;;;18.86
68127;BMP180;54931;52.098;21.006;2023-06-22T03:47:33;100439.20;;;18.90
68127;BMP180;54931;52.098;21.006;2023-06-22T03:50:03;100445.20;;;18.90
68127;BMP180;54931;52.098;21.006;2023-06-22T03:52:32;100457.40;;;19.00
68127;BMP180;54931;52.098;21.006;2023-06-22T03:55:00;100454.80;;;19.00
68127;BMP180;54931;52.098;21.006;2023-06-22T03:57:28;100454.00;;;19.10
68127;BMP180;54931;52.098;21.006;2023-06-22T03:59:57;100457.00;;;19.10
68127;BMP180;54931;52.098;21.006;2023-06-22T04:02:25;100466.20;;;19.10
68127;BMP180;54931;52.098;21.006;2023-06-22T04:04:53;100474.20;;;19.18
68127;BMP180;54931;52.098;21.006;2023-06-22T04:07:21;100475.20;;;19.20
68127;BMP180;54931;52.098;21.006;2023-06-22T04:09:49;100475.20;;;19.20
68127;BMP180;54931;52.098;21.006;2023-06-22T04:12:17;100473.60;;;19.20
68127;BMP180;54931;52.098;21.006;2023-06-22T04:14:44;100474.00;;;19.30
68127;BMP180;54931;52.098;21.006;2023-06-22T04:17:12;100476.00;;;19.30
68127;BMP180;54931;52.098;21.006;2023-06-22T04:19:41;100472.60;;;19.36
68127;BMP180;54931;52.098;21.006;2023-06-22T04:22:09;100474.00;;;19.40
68127;BMP180;54931;52.098;21.006;2023-06-22T04:24:37;100478.60;;;19.40
68127;BMP180;54931;52.098;21.006;2023-06-22T04:27:05;100478.00;;;19.40
68127;BMP180;54931;52.098;21.006;2023-06-22T04:29:33;100478.00;;;19.50
68127;BMP180;54931;52.098;21.006;2023-06-22T04:32:02;100481.20;;;19.52
68127;BMP180;54931;52.098;21.006;2023-06-22T04:34:32;100477.80;;;19.60
68127;BMP180;54931;52.098;21.006;2023-06-22T04:37:00;100478.60;;;19.60
68127;BMP180;54931;52.098;21.006;2023-06-22T04:39:27;100477.00;;;19.70
68127;BMP180;54931;52.098;21.006;2023-06-22T04:41:55;100483.00;;;19.70
68127;BMP180;54931;52.098;21.006;2023-06-22T04:44:28;100482.80;;;19.74
68127;BMP180;54931;52.098;21.006;2023-06-22T04:47:01;100478.80;;;19.80
68127;BMP180;54931;52.098;21.006;2023-06-22T04:49:31;100485.20;;;19.80
68127;BMP180;54931;52.098;21.006;2023-06-22T04:52:06;100478.20;;;19.80
68127;BMP180;54931;52.098;21.006;2023-06-22T04:54:38;100481.00;;;19.90
68127;BMP180;54931;52.098;21.006;2023-06-22T04:57:07;100480.20;;;19.90
68127;BMP180;54931;52.098;21.006;2023-06-22T04:59:38;100475.80;;;19.90
68127;BMP180;54931;52.098;21.006;2023-06-22T05:02:09;100481.40;;;19.90
68127;BMP180;54931;52.098;21.006;2023-06-22T05:04:38;100486.40;;;19.90
68127;BMP180;54931;52.098;21.006;2023-06-22T05:07:08;100484.40;;;19.90
68127;BMP180;54931;52.098;21.006;2023-06-22T05:09:37;100486.80;;;20.00
68127;BMP180;54931;52.098;21.006;2023-06-22T05:12:06;100480.60;;;20.00
68127;BMP180;54931;52.098;21.006;2023-06-22T05:14:35;100481.80;;;20.10
68127;BMP180;54931;52.098;21.006;2023-06-22T05:17:03;100483.20;;;20.10
68127;BMP180;54931;52.098;21.006;2023-06-22T05:19:31;100479.40;;;20.10
68127;BMP180;54931;52.098;21.006;2023-06-22T05:22:00;100472.00;;;20.10
68127;BMP180;54931;52.098;21.006;2023-06-22T05:24:28;100476.40;;;20.10
68127;BMP180;54931;52.098;21.006;2023-06-22T05:26:56;100481.60;;;20.10
68127;BMP180;54931;52.098;21.006;2023-06-22T05:29:23;100485.20;;;20.20
68127;BMP180;54931;52.098;21.006;2023-06-22T05:31:51;100490.40;;;20.20
68127;BMP180;54931;52.098;21.006;2023-06-22T05:34:19;100494.00;;;20.30
68127;BMP180;54931;52.098;21.006;2023-06-22T05:36:47;100506.00;;;20.30
68127;BMP180;54931;52.098;21.006;2023-06-22T05:39:15;100506.60;;;20.30
68127;BMP180;54931;52.098;21.006;2023-06-22T05:41:45;100506.20;;;20.30
68127;BMP180;54931;52.098;21.006;2023-06-22T05:44:13;100510.00;;;20.30
68127;BMP180;54931;52.098;21.006;2023-06-22T05:46:43;100513.20;;;20.30
68127;BMP180;54931;52.098;21.006;2023-06-22T05:49:12;100509.80;;;20.30
68127;BMP180;54931;52.098;21.006;2023-06-22T05:51:43;100510.20;;;20.40
68127;BMP180;54931;52.098;21.006;2023-06-22T05:54:10;100510.20;;;20.40
68127;BMP180;54931;52.098;21.006;2023-06-22T05:56:40;100513.20;;;20.40
68127;BMP180;54931;52.098;21.006;2023-06-22T05:59:09;100517.00;;;20.50
68127;BMP180;54931;52.098;21.006;2023-06-22T06:01:36;100514.80;;;20.50
68127;BMP180;54931;52.098;21.006;2023-06-22T06:04:04;100519.80;;;20.50
68127;BMP180;54931;52.098;21.006;2023-06-22T06:06:32;100521.00;;;20.60
68127;BMP180;54931;52.098;21.006;2023-06-22T06:09:05;100523.40;;;20.70
68127;BMP180;54931;52.098;21.006;2023-06-22T06:11:33;100518.60;;;20.70
68127;BMP180;54931;52.098;21.006;2023-06-22T06:14:00;100521.40;;;20.70
68127;BMP180;54931;52.098;21.006;2023-06-22T06:16:28;100531.20;;;20.80
68127;BMP180;54931;52.098;21.006;2023-06-22T06:18:56;100543.80;;;20.80
68127;BMP180;54931;52.098;21.006;2023-06-22T06:21:27;100541.40;;;20.72
68127;BMP180;54931;52.098;21.006;2023-06-22T06:23:55;100545.00;;;20.80
68127;BMP180;54931;52.098;21.006;2023-06-22T06:26:23;100546.60;;;20.80
68127;BMP180;54931;52.098;21.006;2023-06-22T06:28:57;100544.00;;;20.90
68127;BMP180;54931;52.098;21.006;2023-06-22T06:31:25;100537.60;;;20.90
68127;BMP180;54931;52.098;21.006;2023-06-22T06:33:56;100537.00;;;21.00
68127;BMP180;54931;52.098;21.006;2023-06-22T06:36:25;100536.00;;;21.00
68127;BMP180;54931;52.098;21.006;2023-06-22T06:38:52;100538.60;;;21.10
68127;BMP180;54931;52.098;21.006;2023-06-22T06:41:21;100532.80;;;21.14
68127;BMP180;54931;52.098;21.006;2023-06-22T06:43:48;100534.20;;;21.30
68127;BMP180;54931;52.098;21.006;2023-06-22T06:46:16;100536.40;;;21.40
68127;BMP180;54931;52.098;21.006;2023-06-22T06:48:46;100532.20;;;21.66
68127;BMP180;54931;52.098;21.006;2023-06-22T06:51:14;100540.20;;;21.90
68127;BMP180;54931;52.098;21.006;2023-06-22T06:53:42;100537.80;;;22.00
68127;BMP180;54931;52.098;21.006;2023-06-22T06:56:10;100533.80;;;22.00
68127;BMP180;54931;52.098;21.006;2023-06-22T06:58:41;100533.00;;;22.18
68127;BMP180;54931;52.098;21.006;2023-06-22T07:01:13;100526.20;;;22.50
68127;BMP180;54931;52.098;21.006;2023-06-22T07:03:41;100525.00;;;22.96
68127;BMP180;54931;52.098;21.006;2023-06-22T07:06:09;100522.00;;;23.18
68127;BMP180;54931;52.098;21.006;2023-06-22T07:08:37;100522.40;;;23.20
68127;BMP180;54931;52.098;21.006;2023-06-22T07:11:07;100519.00;;;23.10
68127;BMP180;54931;52.098;21.006;2023-06-22T07:13:35;100515.20;;;23.10
68127;BMP180;54931;52.098;21.006;2023-06-22T07:16:03;100524.20;;;23.40
68127;BMP180;54931;52.098;21.006;2023-06-22T07:18:30;100519.00;;;23.68
68127;BMP180;54931;52.098;21.006;2023-06-22T07:20:58;100518.60;;;23.70
68127;BMP180;54931;52.098;21.006;2023-06-22T07:23:26;100525.00;;;23.90
68127;BMP180;54931;52.098;21.006;2023-06-22T07:25:54;100522.40;;;24.10
68127;BMP180;54931;52.098;21.006;2023-06-22T07:28:22;100529.20;;;24.42
68127;BMP180;54931;52.098;21.006;2023-06-22T07:30:49;100530.20;;;24.70
68127;BMP180;54931;52.098;21.006;2023-06-22T07:33:18;100522.40;;;25.00
68127;BMP180;54931;52.098;21.006;2023-06-22T07:35:47;100525.40;;;25.10
68127;BMP180;54931;52.098;21.006;2023-06-22T07:38:16;100526.20;;;25.00
68127;BMP180;54931;52.098;21.006;2023-06-22T07:40:44;100528.00;;;25.10
68127;BMP180;54931;52.098;21.006;2023-06-22T07:43:11;100528.60;;;25.42
68127;BMP180;54931;52.098;21.006;2023-06-22T07:45:39;100530.00;;;25.76
68127;BMP180;54931;52.098;21.006;2023-06-22T07:48:08;100532.80;;;26.00
68127;BMP180;54931;52.098;21.006;2023-06-22T07:50:36;100532.60;;;26.14
68127;BMP180;54931;52.098;21.006;2023-06-22T07:53:04;100535.20;;;26.06
68127;BMP180;54931;52.098;21.006;2023-06-22T07:55:32;100531.60;;;25.90
68127;BMP180;54931;52.098;21.006;2023-06-22T07:57:59;100536.20;;;25.94
68127;BMP180;54931;52.098;21.006;2023-06-22T08:00:27;100545.80;;;26.18
68127;BMP180;54931;52.098;21.006;2023-06-22T08:02:55;100547.00;;;26.20
68127;BMP180;54931;52.098;21.006;2023-06-22T08:05:24;100548.80;;;26.36
68127;BMP180;54931;52.098;21.006;2023-06-22T08:07:51;100549.60;;;26.30
68127;BMP180;54931;52.098;21.006;2023-06-22T08:10:21;100544.40;;;26.10
68127;BMP180;54931;52.098;21.006;2023-06-22T08:12:49;100544.40;;;26.10
68127;BMP180;54931;52.098;21.006;2023-06-22T08:15:17;100551.80;;;26.10
68127;BMP180;54931;52.098;21.006;2023-06-22T08:17:45;100543.40;;;26.28
68127;BMP180;54931;52.098;21.006;2023-06-22T08:20:13;100543.60;;;26.46
68127;BMP180;54931;52.098;21.006;2023-06-22T08:22:42;100550.80;;;26.74
68127;BMP180;54931;52.098;21.006;2023-06-22T08:25:11;100540.40;;;27.00
68127;BMP180;54931;52.098;21.006;2023-06-22T08:27:40;100541.60;;;27.12
68127;BMP180;54931;52.098;21.006;2023-06-22T08:30:12;100545.40;;;27.10
68127;BMP180;54931;52.098;21.006;2023-06-22T08:32:40;100546.20;;;27.30
68127;BMP180;54931;52.098;21.006;2023-06-22T08:35:08;100544.80;;;27.42
68127;BMP180;54931;52.098;21.006;2023-06-22T08:37:37;100540.40;;;27.54
68127;BMP180;54931;52.098;21.006;2023-06-22T08:40:09;100541.40;;;27.50
68127;BMP180;54931;52.098;21.006;2023-06-22T08:42:39;100538.80;;;27.68
68127;BMP180;54931;52.098;21.006;2023-06-22T08:45:09;100541.60;;;27.90
68127;BMP180;54931;52.098;21.006;2023-06-22T08:47:39;100542.80;;;27.82
68127;BMP180;54931;52.098;21.006;2023-06-22T08:50:12;100541.60;;;27.90
68127;BMP180;54931;52.098;21.006;2023-06-22T08:52:40;100539.00;;;28.00
68127;BMP180;54931;52.098;21.006;2023-06-22T08:55:09;100545.20;;;27.98
68127;BMP180;54931;52.098;21.006;2023-06-22T08:57:38;100547.00;;;28.04
68127;BMP180;54931;52.098;21.006;2023-06-22T09:00:08;100555.40;;;28.30
68127;BMP180;54931;52.098;21.006;2023-06-22T09:02:46;100554.60;;;28.30
68127;BMP180;54931;52.098;21.006;2023-06-22T09:05:15;100556.00;;;28.20
68127;BMP180;54931;52.098;21.006;2023-06-22T09:07:44;100552.00;;;28.16
68127;BMP180;54931;52.098;21.006;2023-06-22T09:10:11;100551.00;;;28.22
68127;BMP180;54931;52.098;21.006;2023-06-22T09:12:39;100558.40;;;28.28
68127;BMP180;54931;52.098;21.006;2023-06-22T09:15:08;100565.20;;;28.30
68127;BMP180;54931;52.098;21.006;2023-06-22T09:17:37;100564.40;;;28.30
68127;BMP180;54931;52.098;21.006;2023-06-22T09:20:06;100556.40;;;28.28
68127;BMP180;54931;52.098;21.006;2023-06-22T09:22:36;100557.60;;;28.20
68127;BMP180;54931;52.098;21.006;2023-06-22T09:25:05;100558.00;;;28.10
68127;BMP180;54931;52.098;21.006;2023-06-22T09:27:33;100551.40;;;28.00
68127;BMP180;54931;52.098;21.006;2023-06-22T09:30:01;100550.40;;;28.00
68127;BMP180;54931;52.098;21.006;2023-06-22T09:32:30;100548.60;;;28.00
68127;BMP180;54931;52.098;21.006;2023-06-22T09:34:58;100548.20;;;28.20
68127;BMP180;54931;52.098;21.006;2023-06-22T09:37:26;100546.20;;;28.30
68127;BMP180;54931;52.098;21.006;2023-06-22T09:39:54;100545.40;;;28.30
68127;BMP180;54931;52.098;21.006;2023-06-22T09:42:21;100544.20;;;28.30
68127;BMP180;54931;52.098;21.006;2023-06-22T09:44:49;100541.20;;;28.30
68127;BMP180;54931;52.098;21.006;2023-06-22T09:47:17;100545.00;;;28.40
68127;BMP180;54931;52.098;21.006;2023-06-22T09:49:44;100542.00;;;28.40
68127;BMP180;54931;52.098;21.006;2023-06-22T09:52:13;100541.00;;;28.40
68127;BMP180;54931;52.098;21.006;2023-06-22T09:54:41;100550.80;;;28.50
68127;BMP180;54931;52.098;21.006;2023-06-22T09:57:08;100550.20;;;28.70
68127;BMP180;54931;52.098;21.006;2023-06-22T09:59:36;100548.40;;;28.80
68127;BMP180;54931;52.098;21.006;2023-06-22T10:02:06;100547.60;;;28.80
68127;BMP180;54931;52.098;21.006;2023-06-22T10:04:35;100552.20;;;28.98
68127;BMP180;54931;52.098;21.006;2023-06-22T10:07:03;100556.00;;;28.90
68127;BMP180;54931;52.098;21.006;2023-06-22T10:09:31;100554.00;;;28.80
68127;BMP180;54931;52.098;21.006;2023-06-22T10:11:59;100555.40;;;28.76
68127;BMP180;54931;52.098;21.006;2023-06-22T10:14:26;100548.60;;;28.70
68127;BMP180;54931;52.098;21.006;2023-06-22T10:16:56;100557.20;;;28.86
68127;BMP180;54931;52.098;21.006;2023-06-22T10:19:24;100555.40;;;28.90
68127;BMP180;54931;52.098;21.006;2023-06-22T10:21:51;100550.20;;;29.10
68127;BMP180;54931;52.098;21.006;2023-06-22T10:24:19;100548.40;;;29.20
68127;BMP180;54931;52.098;21.006;2023-06-22T10:26:47;100556.60;;;29.20
68127;BMP180;54931;52.098;21.006;2023-06-22T10:29:14;100556.40;;;29.28
68127;BMP180;54931;52.098;21.006;2023-06-22T10:31:41;100556.80;;;29.20
68127;BMP180;54931;52.098;21.006;2023-06-22T10:34:09;100556.00;;;29.20
68127;BMP180;54931;52.098;21.006;2023-06-22T10:36:36;100551.00;;;28.90
68127;BMP180;54931;52.098;21.006;2023-06-22T10:39:04;100541.80;;;28.70
68127;BMP180;54931;52.098;21.006;2023-06-22T10:41:33;100542.80;;;28.70
68127;BMP180;54931;52.098;21.006;2023-06-22T10:44:00;100533.40;;;28.70
68127;BMP180;54931;52.098;21.006;2023-06-22T10:46:28;100539.00;;;28.74
68127;BMP180;54931;52.098;21.006;2023-06-22T10:48:55;100539.80;;;28.82
68127;BMP180;54931;52.098;21.006;2023-06-22T10:51:25;100539.20;;;28.84
68127;BMP180;54931;52.098;21.006;2023-06-22T10:53:55;100541.20;;;28.98
68127;BMP180;54931;52.098;21.006;2023-06-22T10:56:23;100538.80;;;29.18
68127;BMP180;54931;52.098;21.006;2023-06-22T10:58:50;100533.20;;;29.10
68127;BMP180;54931;52.098;21.006;2023-06-22T11:01:18;100530.00;;;29.04
68127;BMP180;54931;52.098;21.006;2023-06-22T11:03:47;100528.80;;;29.10
68127;BMP180;54931;52.098;21.006;2023-06-22T11:06:15;100522.80;;;29.08
68127;BMP180;54931;52.098;21.006;2023-06-22T11:08:44;100518.80;;;28.90
68127;BMP180;54931;52.098;21.006;2023-06-22T11:11:12;100518.00;;;28.80
68127;BMP180;54931;52.098;21.006;2023-06-22T11:13:40;100521.00;;;28.90
68127;BMP180;54931;52.098;21.006;2023-06-22T11:16:07;100521.80;;;28.98
68127;BMP180;54931;52.098;21.006;2023-06-22T11:18:35;100522.80;;;29.00
68127;BMP180;54931;52.098;21.006;2023-06-22T11:21:02;100522.20;;;28.80
68127;BMP180;54931;52.098;21.006;2023-06-22T11:23:30;100523.60;;;28.70
68127;BMP180;54931;52.098;21.006;2023-06-22T11:25:58;100521.00;;;28.80
68127;BMP180;54931;52.098;21.006;2023-06-22T11:28:27;100516.20;;;28.80
68127;BMP180;54931;52.098;21.006;2023-06-22T11:30:54;100515.00;;;28.80
68127;BMP180;54931;52.098;21.006;2023-06-22T11:33:22;100514.00;;;28.70
68127;BMP180;54931;52.098;21.006;2023-06-22T11:35:50;100519.00;;;28.70
68127;BMP180;54931;52.098;21.006;2023-06-22T11:38:17;100515.80;;;28.86
68127;BMP180;54931;52.098;21.006;2023-06-22T11:40:45;100514.20;;;28.82
68127;BMP180;54931;52.098;21.006;2023-06-22T11:43:12;100514.00;;;28.88
68127;BMP180;54931;52.098;21.006;2023-06-22T11:45:42;100513.00;;;28.80
68127;BMP180;54931;52.098;21.006;2023-06-22T11:48:10;100511.40;;;28.70
68127;BMP180;54931;52.098;21.006;2023-06-22T11:50:37;100509.20;;;28.50
68127;BMP180;54931;52.098;21.006;2023-06-22T11:53:05;100512.80;;;28.60
68127;BMP180;54931;52.098;21.006;2023-06-22T11:55:32;100513.60;;;28.56
68127;BMP180;54931;52.098;21.006;2023-06-22T11:58:00;100512.60;;;28.52
68127;BMP180;54931;52.098;21.006;2023-06-22T12:00:30;100516.20;;;28.60
68127;BMP180;54931;52.098;21.006;2023-06-22T12:02:58;100515.20;;;28.50
68127;BMP180;54931;52.098;21.006;2023-06-22T12:05:25;100514.00;;;28.50
68127;BMP180;54931;52.098;21.006;2023-06-22T12:07:54;100502.60;;;28.50
68127;BMP180;54931;52.098;21.006;2023-06-22T12:10:23;100512.60;;;28.42
68127;BMP180;54931;52.098;21.006;2023-06-22T12:12:50;100510.00;;;28.50
68127;BMP180;54931;52.098;21.006;2023-06-22T12:15:18;100512.40;;;28.58
68127;BMP180;54931;52.098;21.006;2023-06-22T12:17:46;100511.00;;;28.60
68127;BMP180;54931;52.098;21.006;2023-06-22T12:20:15;100502.20;;;28.70
68127;BMP180;54931;52.098;21.006;2023-06-22T12:22:43;100505.60;;;28.80
68127;BMP180;54931;52.098;21.006;2023-06-22T12:25:11;100500.80;;;28.84
68127;BMP180;54931;52.098;21.006;2023-06-22T12:27:39;100502.40;;;28.90
68127;BMP180;54931;52.098;21.006;2023-06-22T12:30:08;100497.20;;;29.08
68127;BMP180;54931;52.098;21.006;2023-06-22T12:32:36;100492.80;;;29.10
68127;BMP180;54931;52.098;21.006;2023-06-22T12:35:04;100493.60;;;28.90
68127;BMP180;54931;52.098;21.006;2023-06-22T12:37:32;100491.80;;;28.80
68127;BMP180;54931;52.098;21.006;2023-06-22T12:39:59;100490.80;;;28.90
68127;BMP180;54931;52.098;21.006;2023-06-22T12:42:27;100491.40;;;29.00
68127;BMP180;54931;52.098;21.006;2023-06-22T12:44:55;100488.40;;;29.10
68127;BMP180;54931;52.098;21.006;2023-06-22T12:47:22;100497.00;;;29.30
68127;BMP180;54931;52.098;21.006;2023-06-22T12:49:50;100491.80;;;29.30
68127;BMP180;54931;52.098;21.006;2023-06-22T12:52:17;100493.60;;;29.26
68127;BMP180;54931;52.098;21.006;2023-06-22T12:54:45;100491.00;;;29.20
68127;BMP180;54931;52.098;21.006;2023-06-22T12:57:13;100490.20;;;29.16
68127;BMP180;54931;52.098;21.006;2023-06-22T12:59:40;100488.20;;;29.00
68127;BMP180;54931;52.098;21.006;2023-06-22T13:02:07;100492.40;;;29.00
68127;BMP180;54931;52.098;21.006;2023-06-22T13:04:35;100491.20;;;28.80
68127;BMP180;54931;52.098;21.006;2023-06-22T13:07:04;100495.40;;;28.80
68127;BMP180;54931;52.098;21.006;2023-06-22T13:09:32;100492.40;;;28.84
68127;BMP180;54931;52.098;21.006;2023-06-22T13:11:59;100489.20;;;29.00
68127;BMP180;54931;52.098;21.006;2023-06-22T13:14:27;100485.20;;;29.00
68127;BMP180;54931;52.098;21.006;2023-06-22T13:16:55;100483.80;;;29.00
68127;BMP180;54931;52.098;21.006;2023-06-22T13:19:22;100488.80;;;29.00
68127;BMP180;54931;52.098;21.006;2023-06-22T13:21:50;100489.00;;;28.90
68127;BMP180;54931;52.098;21.006;2023-06-22T13:24:17;100483.40;;;28.90
68127;BMP180;54931;52.098;21.006;2023-06-22T13:26:45;100491.40;;;28.90
68127;BMP180;54931;52.098;21.006;2023-06-22T13:29:13;100486.20;;;28.90
68127;BMP180;54931;52.098;21.006;2023-06-22T13:31:40;100482.60;;;29.00
68127;BMP180;54931;52.098;21.006;2023-06-22T13:34:08;100480.20;;;29.10
68127;BMP180;54931;52.098;21.006;2023-06-22T13:36:35;100482.80;;;29.16
68127;BMP180;54931;52.098;21.006;2023-06-22T13:39:03;100486.80;;;29.30
68127;BMP180;54931;52.098;21.006;2023-06-22T13:41:31;100486.40;;;29.30
68127;BMP180;54931;52.098;21.006;2023-06-22T13:43:59;100480.40;;;29.20
68127;BMP180;54931;52.098;21.006;2023-06-22T13:46:28;100486.60;;;29.24
68127;BMP180;54931;52.098;21.006;2023-06-22T13:48:55;100486.20;;;29.28
68127;BMP180;54931;52.098;21.006;2023-06-22T13:51:23;100490.20;;;29.20
68127;BMP180;54931;52.098;21.006;2023-06-22T13:53:51;100489.00;;;29.20